createdAt,value
2022-09-20T00:00:22.737Z,10.18
2022-09-20T00:01:22.841Z,10.18
2022-09-20T00:02:22.713Z,10.15
2022-09-20T00:03:22.704Z,10.14
2022-09-20T00:04:22.696Z,10.12
2022-09-20T00:05:22.724Z,10.08
2022-09-20T00:06:22.689Z,10.07
2022-09-20T00:07:22.674Z,10.05
2022-09-20T00:08:22.661Z,10.04
2022-09-20T00:09:22.634Z,10.01
2022-09-20T00:10:22.617Z,9.97
2022-09-20T00:11:22.623Z,9.94
2022-09-20T00:12:22.627Z,9.91
2022-09-20T00:13:22.591Z,9.90
2022-09-20T00:14:22.598Z,9.90
2022-09-20T00:15:22.598Z,9.90
2022-09-20T00:16:22.627Z,9.89
2022-09-20T00:17:22.580Z,9.84
2022-09-20T00:18:22.551Z,9.84
2022-09-20T00:19:22.538Z,9.81
2022-09-20T00:20:22.523Z,9.81
2022-09-20T00:21:22.509Z,9.79
2022-09-20T00:22:22.502Z,9.76
2022-09-20T00:23:22.477Z,9.76
2022-09-20T00:24:22.487Z,9.75
2022-09-20T00:25:22.486Z,9.75
2022-09-20T00:26:22.465Z,9.75
2022-09-20T00:27:22.499Z,9.74
2022-09-20T00:28:22.449Z,9.71
2022-09-20T00:29:22.436Z,9.71
2022-09-20T00:30:22.414Z,9.69
2022-09-20T00:31:22.446Z,9.69
2022-09-20T00:32:22.613Z,9.64
2022-09-20T00:33:22.378Z,9.65
2022-09-20T00:34:22.373Z,9.61
2022-09-20T00:35:22.359Z,9.61
2022-09-20T00:36:22.350Z,9.58
2022-09-20T00:37:22.352Z,9.58
2022-09-20T00:38:22.334Z,9.58
2022-09-20T00:39:22.325Z,9.58
2022-09-20T00:40:22.338Z,9.60
2022-09-20T00:41:22.287Z,9.60
2022-09-20T00:42:22.293Z,9.60
2022-09-20T00:43:22.289Z,9.58
2022-09-20T00:44:22.269Z,9.54
2022-09-20T00:45:22.261Z,9.53
2022-09-20T00:46:22.314Z,9.54
2022-09-20T00:47:22.236Z,9.53
2022-09-20T00:48:22.229Z,9.50
2022-09-20T00:49:22.215Z,9.48
2022-09-20T00:50:22.216Z,9.48
2022-09-20T00:51:22.192Z,9.47
2022-09-20T00:52:22.183Z,9.48
2022-09-20T00:53:22.160Z,9.46
2022-09-20T00:54:22.166Z,9.46
2022-09-20T00:55:22.153Z,9.46
2022-09-20T00:56:22.128Z,9.43
2022-09-20T00:57:22.129Z,9.42
2022-09-20T00:58:22.252Z,9.40
2022-09-20T00:59:22.104Z,9.40
2022-09-20T01:00:22.108Z,9.39
2022-09-20T01:01:22.228Z,9.38
2022-09-20T01:02:22.146Z,9.38
2022-09-20T01:03:22.081Z,9.36
2022-09-20T01:04:22.047Z,9.38
2022-09-20T01:05:22.038Z,9.35
2022-09-20T01:06:22.035Z,9.33
2022-09-20T01:07:22.020Z,9.36
2022-09-20T01:08:22.032Z,9.33
2022-09-20T01:09:21.997Z,9.33
2022-09-20T01:10:21.993Z,9.36
2022-09-20T01:11:21.981Z,9.35
2022-09-20T01:12:21.972Z,9.33
2022-09-20T01:13:21.956Z,9.35
2022-09-20T01:14:21.963Z,9.33
2022-09-20T01:15:21.933Z,9.35
2022-09-20T01:16:21.946Z,9.35
2022-09-20T01:17:21.906Z,9.38
2022-09-20T01:18:21.897Z,9.38
2022-09-20T01:19:21.899Z,9.39
2022-09-20T01:20:21.894Z,9.39
2022-09-20T01:21:21.877Z,9.40
2022-09-20T01:22:21.859Z,9.40
2022-09-20T01:23:21.849Z,9.39
2022-09-20T01:24:21.840Z,9.39
2022-09-20T01:25:21.829Z,9.38
2022-09-20T01:26:21.832Z,9.38
2022-09-20T01:27:21.800Z,9.38
2022-09-20T01:28:21.985Z,9.39
2022-09-20T01:29:21.885Z,9.39
2022-09-20T01:30:21.777Z,9.39
2022-09-20T01:31:21.802Z,9.39
2022-09-20T01:32:21.747Z,9.40
2022-09-20T01:33:21.788Z,9.40
2022-09-20T01:34:21.734Z,9.38
2022-09-20T01:35:21.731Z,9.38
2022-09-20T01:36:21.722Z,9.39
2022-09-20T01:37:21.698Z,9.38
2022-09-20T01:38:21.689Z,9.36
2022-09-20T01:39:21.671Z,9.35
2022-09-20T01:40:21.752Z,9.35
2022-09-20T01:41:21.653Z,9.35
2022-09-20T01:42:21.639Z,9.38
2022-09-20T01:43:21.635Z,9.38
2022-09-20T01:44:21.630Z,9.36
2022-09-20T01:45:21.612Z,9.36
2022-09-20T01:46:21.660Z,9.38
2022-09-20T01:47:21.599Z,9.38
2022-09-20T01:48:21.670Z,9.36
2022-09-20T01:49:21.567Z,9.38
2022-09-20T01:50:21.567Z,9.40
2022-09-20T01:51:21.558Z,9.39
2022-09-20T01:52:21.549Z,9.40
2022-09-20T01:53:21.530Z,9.40
2022-09-20T01:54:21.527Z,9.43
2022-09-20T01:55:21.508Z,9.43
2022-09-20T01:56:21.509Z,9.42
2022-09-20T01:57:25.126Z,9.43
2022-09-20T01:58:22.475Z,9.43
2022-09-20T01:59:24.580Z,9.43
2022-09-20T02:00:22.016Z,9.47
2022-09-20T02:01:21.502Z,9.46
2022-09-20T02:02:21.491Z,9.48
2022-09-20T02:03:21.421Z,9.51
2022-09-20T02:04:21.417Z,9.51
2022-09-20T02:05:21.394Z,9.53
2022-09-20T02:06:21.401Z,9.53
2022-09-20T02:07:21.376Z,9.54
2022-09-20T02:08:21.369Z,9.54
2022-09-20T02:09:21.348Z,9.54
2022-09-20T02:10:21.350Z,9.53
2022-09-20T02:11:21.338Z,9.57
2022-09-20T02:12:21.332Z,9.57
2022-09-20T02:13:21.314Z,9.58
2022-09-20T02:14:21.314Z,9.57
2022-09-20T02:15:21.285Z,9.57
2022-09-20T02:16:21.334Z,9.58
2022-09-20T02:17:21.262Z,9.56
2022-09-20T02:18:21.268Z,9.57
2022-09-20T02:19:21.257Z,9.58
2022-09-20T02:20:21.266Z,9.57
2022-09-20T02:21:21.217Z,9.61
2022-09-20T02:22:21.208Z,9.64
2022-09-20T02:23:21.200Z,9.65
2022-09-20T02:24:21.212Z,9.66
2022-09-20T02:25:21.191Z,9.66
2022-09-20T02:26:21.193Z,9.69
2022-09-20T02:27:21.158Z,9.69
2022-09-20T02:28:21.154Z,9.69
2022-09-20T02:29:21.317Z,9.66
2022-09-20T02:30:21.127Z,9.65
2022-09-20T02:31:21.249Z,9.65
2022-09-20T02:32:21.114Z,9.64
2022-09-20T02:33:21.090Z,9.65
2022-09-20T02:34:21.101Z,9.65
2022-09-20T02:35:21.087Z,9.65
2022-09-20T02:36:21.063Z,9.65
2022-09-20T02:37:21.076Z,9.68
2022-09-20T02:38:21.063Z,9.69
2022-09-20T02:39:21.031Z,9.69
2022-09-20T02:40:21.131Z,9.71
2022-09-20T02:41:21.020Z,9.71
2022-09-20T02:42:21.004Z,9.72
2022-09-20T02:43:20.986Z,9.71
2022-09-20T02:44:21.003Z,9.69
2022-09-20T02:45:20.958Z,9.69
2022-09-20T02:46:21.032Z,9.68
2022-09-20T02:47:20.955Z,9.68
2022-09-20T02:48:20.941Z,9.69
2022-09-20T02:49:20.933Z,9.66
2022-09-20T02:50:20.908Z,9.68
2022-09-20T02:51:20.915Z,9.66
2022-09-20T02:52:20.911Z,9.66
2022-09-20T02:53:20.877Z,9.68
2022-09-20T02:54:20.883Z,9.68
2022-09-20T02:55:20.869Z,9.69
2022-09-20T02:56:20.850Z,9.68
2022-09-20T02:57:20.861Z,9.66
2022-09-20T02:58:20.842Z,9.68
2022-09-20T02:59:20.819Z,9.65
2022-09-20T03:00:20.886Z,9.65
2022-09-20T03:01:20.856Z,9.66
2022-09-20T03:02:21.108Z,9.68
2022-09-20T03:03:20.783Z,9.68
2022-09-20T03:04:21.790Z,9.69
2022-09-20T03:05:20.760Z,9.68
2022-09-20T03:06:20.746Z,9.65
2022-09-20T03:07:20.737Z,9.68
2022-09-20T03:08:20.735Z,9.68
2022-09-20T03:09:20.709Z,9.68
2022-09-20T03:10:20.696Z,9.69
2022-09-20T03:11:20.687Z,9.69
2022-09-20T03:12:20.689Z,9.71
2022-09-20T03:13:20.674Z,9.68
2022-09-20T03:14:20.667Z,9.71
2022-09-20T03:15:20.646Z,9.69
2022-09-20T03:16:20.665Z,9.72
2022-09-20T03:17:20.625Z,9.76
2022-09-20T03:18:20.619Z,9.79
2022-09-20T03:19:20.607Z,9.79
2022-09-20T03:20:20.602Z,9.81
2022-09-20T03:21:20.588Z,9.81
2022-09-20T03:22:20.585Z,9.83
2022-09-20T03:23:20.570Z,9.83
2022-09-20T03:24:20.546Z,9.81
2022-09-20T03:25:20.553Z,9.79
2022-09-20T03:26:20.544Z,9.78
2022-09-20T03:27:20.524Z,9.79
2022-09-20T03:28:20.888Z,9.78
2022-09-20T03:29:20.497Z,9.78
2022-09-20T03:30:21.309Z,9.78
2022-09-20T03:31:20.507Z,9.78
2022-09-20T03:32:20.485Z,9.78
2022-09-20T03:33:20.516Z,9.78
2022-09-20T03:34:20.452Z,9.78
2022-09-20T03:35:20.434Z,9.78
2022-09-20T03:36:20.535Z,9.78
2022-09-20T03:37:20.426Z,9.75
2022-09-20T03:38:21.354Z,9.74
2022-09-20T03:39:20.751Z,9.72
2022-09-20T03:40:20.461Z,9.71
2022-09-20T03:41:20.370Z,9.71
2022-09-20T03:42:20.370Z,9.68
2022-09-20T03:43:20.347Z,9.69
2022-09-20T03:44:20.343Z,9.68
2022-09-20T03:45:20.339Z,9.68
2022-09-20T03:46:20.385Z,9.68
2022-09-20T03:47:20.317Z,9.72
2022-09-20T03:48:20.292Z,9.69
2022-09-20T03:49:20.294Z,9.69
2022-09-20T03:50:20.286Z,9.69
2022-09-20T03:51:20.257Z,9.65
2022-09-20T03:52:20.242Z,9.68
2022-09-20T03:53:20.244Z,9.65
2022-09-20T03:54:20.230Z,9.65
2022-09-20T03:55:20.220Z,9.65
2022-09-20T03:56:20.211Z,9.65
2022-09-20T03:57:20.212Z,9.61
2022-09-20T03:58:20.199Z,9.64
2022-09-20T03:59:20.181Z,9.64
2022-09-20T04:00:20.162Z,9.65
2022-09-20T04:01:20.214Z,9.64
2022-09-20T04:02:20.230Z,9.66
2022-09-20T04:03:21.122Z,9.66
2022-09-20T04:04:20.312Z,9.69
2022-09-20T04:05:21.069Z,9.72
2022-09-20T04:06:20.119Z,9.72
2022-09-20T04:07:20.104Z,9.74
2022-09-20T04:08:20.090Z,9.74
2022-09-20T04:09:20.076Z,9.75
2022-09-20T04:10:20.072Z,9.79
2022-09-20T04:11:20.058Z,9.81
2022-09-20T04:12:20.044Z,9.84
2022-09-20T04:13:20.031Z,9.83
2022-09-20T04:14:20.021Z,9.83
2022-09-20T04:15:20.022Z,9.83
2022-09-20T04:16:20.022Z,9.79
2022-09-20T04:17:19.985Z,9.79
2022-09-20T04:18:19.981Z,9.78
2022-09-20T04:19:19.973Z,9.79
2022-09-20T04:20:19.948Z,9.79
2022-09-20T04:21:19.954Z,9.76
2022-09-20T04:22:19.926Z,9.75
2022-09-20T04:23:19.927Z,9.75
2022-09-20T04:24:19.907Z,9.74
2022-09-20T04:25:19.965Z,9.76
2022-09-20T04:26:19.904Z,9.74
2022-09-20T04:27:19.866Z,9.75
2022-09-20T04:28:19.868Z,9.78
2022-09-20T04:29:19.864Z,9.76
2022-09-20T04:30:19.870Z,9.79
2022-09-20T04:31:20.962Z,9.81
2022-09-20T04:32:19.861Z,9.81
2022-09-20T04:33:19.802Z,9.81
2022-09-20T04:34:19.838Z,9.81
2022-09-20T04:35:19.841Z,9.78
2022-09-20T04:36:19.776Z,9.76
2022-09-20T04:37:19.767Z,9.74
2022-09-20T04:38:19.762Z,9.72
2022-09-20T04:39:19.759Z,9.68
2022-09-20T04:40:19.772Z,9.64
2022-09-20T04:41:19.741Z,9.64
2022-09-20T04:42:19.718Z,9.58
2022-09-20T04:43:19.704Z,9.54
2022-09-20T04:44:19.691Z,9.50
2022-09-20T04:45:19.686Z,9.46
2022-09-20T04:46:19.719Z,9.43
2022-09-20T04:47:19.669Z,9.39
2022-09-20T04:48:19.669Z,9.39
2022-09-20T04:49:19.645Z,9.33
2022-09-20T04:50:19.642Z,9.32
2022-09-20T04:51:19.633Z,9.32
2022-09-20T04:52:19.624Z,9.33
2022-09-20T04:53:19.595Z,9.33
2022-09-20T04:54:19.590Z,9.35
2022-09-20T04:55:19.592Z,9.33
2022-09-20T04:56:19.583Z,9.33
2022-09-20T04:57:19.554Z,9.36
2022-09-20T04:58:19.545Z,9.36
2022-09-20T04:59:19.547Z,9.35
2022-09-20T05:00:19.510Z,9.36
2022-09-20T05:01:19.804Z,9.40
2022-09-20T05:02:19.545Z,9.43
2022-09-20T05:03:19.500Z,9.48
2022-09-20T05:04:19.494Z,9.51
2022-09-20T05:05:19.477Z,9.53
2022-09-20T05:06:19.645Z,9.56
2022-09-20T05:07:19.889Z,9.57
2022-09-20T05:08:19.436Z,9.57
2022-09-20T05:09:19.433Z,9.60
2022-09-20T05:10:19.414Z,9.60
2022-09-20T05:11:19.404Z,9.58
2022-09-20T05:12:19.396Z,9.60
2022-09-20T05:13:19.397Z,9.58
2022-09-20T05:14:19.380Z,9.64
2022-09-20T05:15:19.374Z,9.61
2022-09-20T05:16:19.411Z,9.66
2022-09-20T05:17:19.336Z,9.66
2022-09-20T05:18:19.328Z,9.65
2022-09-20T05:19:19.337Z,9.68
2022-09-20T05:20:19.315Z,9.66
2022-09-20T05:21:19.311Z,9.66
2022-09-20T05:22:19.288Z,9.68
2022-09-20T05:23:19.278Z,9.74
2022-09-20T05:24:19.268Z,9.74
2022-09-20T05:25:19.377Z,9.75
2022-09-20T05:26:19.387Z,9.78
2022-09-20T05:27:19.221Z,9.76
2022-09-20T05:28:19.233Z,9.79
2022-09-20T05:29:19.210Z,9.81
2022-09-20T05:30:19.206Z,9.81
2022-09-20T05:31:19.257Z,9.83
2022-09-20T05:32:19.178Z,9.86
2022-09-20T05:33:19.190Z,9.86
2022-09-20T05:34:19.165Z,9.90
2022-09-20T05:35:19.146Z,9.91
2022-09-20T05:36:19.132Z,9.93
2022-09-20T05:37:19.249Z,9.96
2022-09-20T05:38:19.144Z,9.99
2022-09-20T05:39:19.105Z,10.02
2022-09-20T05:40:19.118Z,10.02
2022-09-20T05:41:19.083Z,10.05
2022-09-20T05:42:19.076Z,10.08
2022-09-20T05:43:19.080Z,10.09
2022-09-20T05:44:19.056Z,10.12
2022-09-20T05:45:19.048Z,10.14
2022-09-20T05:46:19.023Z,10.20
2022-09-20T05:47:19.019Z,10.23
2022-09-20T05:48:19.010Z,10.26
2022-09-20T05:49:19.010Z,10.29
2022-09-20T05:50:18.987Z,10.32
2022-09-20T05:51:18.983Z,10.34
2022-09-20T05:52:18.975Z,10.40
2022-09-20T05:53:18.971Z,10.40
2022-09-20T05:54:18.952Z,10.44
2022-09-20T05:55:18.958Z,10.45
2022-09-20T05:56:18.924Z,10.45
2022-09-20T05:57:18.920Z,10.48
2022-09-20T05:58:18.899Z,10.52
2022-09-20T05:59:18.886Z,10.48
2022-09-20T06:00:18.931Z,10.53
2022-09-20T06:01:18.913Z,10.52
2022-09-20T06:02:18.878Z,10.55
2022-09-20T06:03:19.018Z,10.55
2022-09-20T06:04:18.838Z,10.53
2022-09-20T06:05:18.834Z,10.59
2022-09-20T06:06:18.830Z,10.55
2022-09-20T06:07:18.821Z,10.55
2022-09-20T06:08:18.998Z,10.55
2022-09-20T06:09:18.808Z,10.55
2022-09-20T06:10:18.791Z,10.53
2022-09-20T06:11:18.790Z,10.59
2022-09-20T06:12:18.766Z,10.55
2022-09-20T06:13:18.740Z,10.59
2022-09-20T06:14:18.729Z,10.60
2022-09-20T06:15:18.721Z,10.59
2022-09-20T06:16:18.751Z,10.56
2022-09-20T06:17:18.702Z,10.56
2022-09-20T06:18:18.699Z,10.56
2022-09-20T06:19:18.691Z,10.55
2022-09-20T06:20:18.666Z,10.53
2022-09-20T06:21:18.656Z,10.53
2022-09-20T06:22:18.738Z,10.52
2022-09-20T06:23:18.650Z,10.55
2022-09-20T06:24:18.635Z,10.53
2022-09-20T06:25:18.621Z,10.53
2022-09-20T06:26:18.617Z,10.52
2022-09-20T06:27:18.598Z,10.52
2022-09-20T06:28:18.631Z,10.53
2022-09-20T06:29:18.566Z,10.53
2022-09-20T06:30:18.704Z,10.55
2022-09-20T06:31:18.542Z,10.59
2022-09-20T06:32:18.538Z,10.59
2022-09-20T06:33:18.530Z,10.59
2022-09-20T06:34:18.516Z,10.56
2022-09-20T06:35:18.528Z,10.55
2022-09-20T06:36:18.523Z,10.59
2022-09-20T06:37:18.479Z,10.60
2022-09-20T06:38:18.460Z,10.63
2022-09-20T06:39:18.492Z,10.63
2022-09-20T06:40:18.494Z,10.63
2022-09-20T06:41:18.459Z,10.63
2022-09-20T06:42:18.440Z,10.66
2022-09-20T06:43:18.426Z,10.67
2022-09-20T06:44:18.403Z,10.70
2022-09-20T06:45:18.398Z,10.70
2022-09-20T06:46:18.477Z,10.71
2022-09-20T06:47:18.375Z,10.73
2022-09-20T06:48:18.357Z,10.70
2022-09-20T06:49:18.367Z,10.71
2022-09-20T06:50:18.333Z,10.74
2022-09-20T06:51:18.330Z,10.78
2022-09-20T06:52:18.315Z,10.78
2022-09-20T06:53:18.321Z,10.78
2022-09-20T06:54:18.308Z,10.76
2022-09-20T06:55:18.325Z,10.79
2022-09-20T06:56:18.259Z,10.78
2022-09-20T06:57:18.262Z,10.78
2022-09-20T06:58:18.271Z,10.74
2022-09-20T06:59:18.296Z,10.79
2022-09-20T07:00:18.242Z,10.79
2022-09-20T07:01:29.289Z,10.78
2022-09-20T07:02:19.265Z,10.73
2022-09-20T07:03:18.224Z,10.73
2022-09-20T07:04:18.190Z,10.68
2022-09-20T07:05:18.191Z,10.70
2022-09-20T07:06:18.189Z,10.71
2022-09-20T07:07:18.183Z,10.74
2022-09-20T07:08:18.154Z,10.70
2022-09-20T07:09:18.149Z,10.67
2022-09-20T07:10:18.226Z,10.73
2022-09-20T07:11:18.122Z,10.68
2022-09-20T07:12:18.109Z,10.68
2022-09-20T07:13:18.104Z,10.73
2022-09-20T07:14:18.095Z,10.74
2022-09-20T07:15:18.084Z,10.76
2022-09-20T07:16:18.106Z,10.74
2022-09-20T07:17:18.059Z,10.79
2022-09-20T07:18:18.049Z,10.79
2022-09-20T07:19:18.035Z,10.74
2022-09-20T07:20:21.338Z,10.78
2022-09-20T07:21:18.010Z,10.70
2022-09-20T07:22:17.994Z,10.73
2022-09-20T07:23:17.987Z,10.76
2022-09-20T07:24:17.977Z,10.74
2022-09-20T07:25:17.982Z,10.71
2022-09-20T07:26:17.959Z,10.74
2022-09-20T07:27:17.961Z,10.71
2022-09-20T07:28:17.931Z,10.68
2022-09-20T07:29:17.922Z,10.63
2022-09-20T07:30:17.918Z,10.64
2022-09-20T07:31:17.981Z,10.67
2022-09-20T07:32:17.900Z,10.70
2022-09-20T07:33:17.907Z,10.71
2022-09-20T07:34:17.868Z,10.73
2022-09-20T07:35:17.868Z,10.73
2022-09-20T07:36:17.856Z,10.70
2022-09-20T07:37:17.856Z,10.68
2022-09-20T07:38:17.837Z,10.68
2022-09-20T07:39:17.823Z,10.67
2022-09-20T07:40:17.822Z,10.61
2022-09-20T07:41:17.840Z,10.68
2022-09-20T07:42:17.786Z,10.68
2022-09-20T07:43:17.838Z,10.68
2022-09-20T07:44:17.769Z,10.67
2022-09-20T07:45:17.765Z,10.71
2022-09-20T07:46:17.775Z,10.68
2022-09-20T07:47:17.741Z,10.68
2022-09-20T07:48:17.732Z,10.71
2022-09-20T07:49:17.726Z,10.82
2022-09-20T07:50:17.708Z,10.81
2022-09-20T07:51:17.687Z,10.82
2022-09-20T07:52:17.694Z,10.81
2022-09-20T07:53:17.670Z,10.86
2022-09-20T07:54:17.682Z,10.91
2022-09-20T07:55:17.641Z,10.97
2022-09-20T07:56:17.621Z,10.92
2022-09-20T07:57:17.628Z,10.94
2022-09-20T07:58:17.659Z,10.97
2022-09-20T07:59:17.619Z,10.99
2022-09-20T08:00:17.572Z,11.02
2022-09-20T08:01:17.621Z,11.03
2022-09-20T08:02:17.630Z,11.00
2022-09-20T08:03:17.559Z,11.03
2022-09-20T08:04:17.540Z,11.11
2022-09-20T08:05:17.542Z,11.14
2022-09-20T08:06:17.517Z,11.17
2022-09-20T08:07:17.523Z,11.25
2022-09-20T08:08:17.531Z,11.19
2022-09-20T08:09:17.491Z,11.25
2022-09-20T08:10:17.487Z,11.27
2022-09-20T08:11:17.470Z,11.29
2022-09-20T08:14:18.615Z,11.43
2022-09-20T08:15:17.431Z,11.43
2022-09-20T08:16:17.462Z,11.51
2022-09-20T08:17:17.410Z,11.51
2022-09-20T08:18:17.402Z,11.55
2022-09-20T08:19:18.245Z,11.60
2022-09-20T08:20:17.383Z,11.52
2022-09-20T08:21:17.360Z,11.57
2022-09-20T08:22:17.351Z,11.62
2022-09-20T08:23:23.663Z,11.65
2022-09-20T08:24:18.335Z,11.75
2022-09-20T08:25:17.334Z,11.75
2022-09-20T08:26:17.310Z,11.79
2022-09-20T08:27:17.311Z,11.85
2022-09-20T08:28:17.281Z,11.90
2022-09-20T08:29:17.293Z,11.94
2022-09-20T08:30:17.521Z,11.94
2022-09-20T08:31:17.378Z,11.96
2022-09-20T08:32:17.267Z,12.05
2022-09-20T08:33:17.254Z,12.01
2022-09-20T08:34:17.241Z,12.01
2022-09-20T08:35:17.219Z,12.01
2022-09-20T08:36:17.211Z,12.01
2022-09-20T08:37:17.183Z,11.99
2022-09-20T08:40:18.201Z,12.17
2022-09-20T08:41:17.151Z,12.13
2022-09-20T08:42:17.202Z,12.07
2022-09-20T08:43:22.269Z,12.20
2022-09-20T08:44:18.430Z,12.32
2022-09-20T08:45:34.464Z,12.41
2022-09-20T08:46:23.124Z,12.39
2022-09-20T08:47:18.094Z,12.49
2022-09-20T08:48:17.064Z,12.62
2022-09-20T08:49:17.059Z,12.67
2022-09-20T08:50:17.806Z,12.75
2022-09-20T08:51:22.588Z,12.85
2022-09-20T08:52:18.026Z,12.79
2022-09-20T08:53:21.281Z,12.83
2022-09-20T08:54:17.025Z,12.87
2022-09-20T08:55:17.207Z,12.86
2022-09-20T08:56:16.994Z,12.89
2022-09-20T08:57:16.973Z,12.90
2022-09-20T08:58:16.975Z,12.96
2022-09-20T08:59:17.006Z,13.03
2022-09-20T09:00:17.055Z,13.03
2022-09-20T09:01:17.066Z,12.96
2022-09-20T09:02:16.974Z,13.01
2022-09-20T09:03:16.924Z,13.03
2022-09-20T09:04:16.901Z,13.07
2022-09-20T09:05:16.893Z,13.08
2022-09-20T09:06:18.594Z,13.12
2022-09-20T09:07:16.870Z,13.19
2022-09-20T09:08:16.961Z,13.19
2022-09-20T09:09:16.837Z,13.15
2022-09-20T09:10:16.903Z,13.12
2022-09-20T09:11:16.841Z,13.11
2022-09-20T09:12:16.816Z,13.14
2022-09-20T09:13:16.801Z,13.15
2022-09-20T09:14:17.483Z,13.19
2022-09-20T09:15:17.551Z,13.32
2022-09-20T09:16:22.650Z,13.41
2022-09-20T09:17:17.754Z,13.49
2022-09-20T09:18:16.752Z,13.55
2022-09-20T09:19:16.743Z,13.62
2022-09-20T09:20:16.801Z,13.67
2022-09-20T09:21:16.726Z,13.73
2022-09-20T09:22:16.712Z,13.82
2022-09-20T09:23:16.728Z,13.87
2022-09-20T09:24:16.678Z,13.95
2022-09-20T09:25:16.680Z,13.91
2022-09-20T09:26:16.671Z,13.89
2022-09-20T09:27:16.662Z,14.03
2022-09-20T09:28:16.634Z,14.14
2022-09-20T09:29:16.635Z,14.20
2022-09-20T09:30:16.684Z,14.25
2022-09-20T09:31:16.659Z,14.24
2022-09-20T09:32:16.594Z,14.20
2022-09-20T09:33:16.583Z,14.14
2022-09-20T09:34:16.590Z,14.04
2022-09-20T09:35:16.576Z,13.92
2022-09-20T09:36:16.925Z,13.89
2022-09-20T09:37:16.543Z,13.87
2022-09-20T09:38:16.541Z,13.89
2022-09-20T09:39:16.525Z,13.99
2022-09-20T09:40:16.777Z,13.96
2022-09-20T09:41:16.492Z,13.89
2022-09-20T09:42:16.494Z,14.02
2022-09-20T09:43:16.486Z,14.15
2022-09-20T09:44:16.489Z,14.25
2022-09-20T09:45:16.482Z,14.42
2022-09-20T09:46:16.525Z,14.46
2022-09-20T09:47:16.439Z,14.35
2022-09-20T09:48:16.435Z,14.35
2022-09-20T09:49:16.602Z,14.40
2022-09-20T09:50:16.423Z,14.32
2022-09-20T09:51:16.401Z,14.32
2022-09-20T09:52:16.384Z,14.35
2022-09-20T09:53:16.368Z,14.20
2022-09-20T09:54:16.371Z,14.10
2022-09-20T09:55:16.347Z,14.14
2022-09-20T09:56:16.349Z,14.07
2022-09-20T09:57:16.350Z,14.18
2022-09-20T09:58:16.331Z,14.29
2022-09-20T09:59:16.323Z,14.40
2022-09-20T10:00:21.611Z,14.43
2022-09-20T10:01:17.316Z,14.29
2022-09-20T10:02:16.329Z,14.18
2022-09-20T10:03:16.267Z,14.17
2022-09-20T10:04:16.259Z,14.20
2022-09-20T10:05:16.244Z,14.24
2022-09-20T10:06:16.225Z,14.32
2022-09-20T10:07:16.216Z,14.37
2022-09-20T10:08:16.212Z,14.40
2022-09-20T10:09:16.188Z,14.40
2022-09-20T10:10:16.185Z,14.45
2022-09-20T10:11:16.176Z,14.40
2022-09-20T10:12:16.177Z,14.50
2022-09-20T10:13:16.183Z,14.51
2022-09-20T10:14:16.150Z,14.62
2022-09-20T10:15:16.145Z,14.64
2022-09-20T10:16:17.414Z,14.69
2022-09-20T10:17:16.133Z,14.80
2022-09-20T10:18:16.164Z,14.80
2022-09-20T10:19:20.662Z,14.88
2022-09-20T10:20:17.079Z,14.84
2022-09-20T10:21:16.056Z,14.81
2022-09-20T10:22:16.058Z,14.94
2022-09-20T10:23:51.938Z,15.03
2022-09-20T10:24:17.042Z,14.98
2022-09-20T10:25:16.034Z,15.03
2022-09-20T10:26:16.022Z,15.09
2022-09-20T10:27:16.003Z,15.10
2022-09-20T10:28:15.995Z,15.27
2022-09-20T10:29:15.986Z,15.44
2022-09-20T10:30:15.972Z,15.59
2022-09-20T10:31:16.109Z,15.71
2022-09-20T10:32:15.972Z,15.76
2022-09-20T10:33:15.941Z,15.76
2022-09-20T10:34:15.936Z,15.75
2022-09-20T10:35:15.932Z,15.80
2022-09-20T10:36:15.903Z,15.78
2022-09-20T10:37:15.910Z,15.76
2022-09-20T10:38:15.891Z,15.69
2022-09-20T10:39:15.886Z,15.56
2022-09-20T10:40:15.935Z,15.35
2022-09-20T10:41:15.850Z,15.27
2022-09-20T10:42:15.848Z,15.23
2022-09-20T10:43:15.838Z,15.23
2022-09-20T10:44:15.837Z,15.31
2022-09-20T10:45:34.925Z,15.39
2022-09-20T10:46:33.129Z,15.39
2022-09-20T10:47:16.941Z,15.60
2022-09-20T10:48:15.776Z,15.83
2022-09-20T10:49:15.798Z,16.02
2022-09-20T10:50:15.753Z,16.20
2022-09-20T10:51:15.745Z,16.31
2022-09-20T10:52:15.741Z,16.28
2022-09-20T10:53:15.733Z,16.25
2022-09-20T10:54:15.718Z,16.24
2022-09-20T10:55:15.710Z,16.14
2022-09-20T10:56:15.705Z,16.04
2022-09-20T10:57:15.702Z,16.04
2022-09-20T10:58:15.653Z,15.93
2022-09-20T10:59:15.659Z,15.78
2022-09-20T11:00:15.722Z,15.68
2022-09-20T11:01:15.669Z,15.65
2022-09-20T11:02:15.657Z,15.75
2022-09-20T11:03:15.624Z,15.78
2022-09-20T11:04:15.609Z,15.76
2022-09-20T11:05:15.595Z,15.89
2022-09-20T11:06:15.601Z,16.01
2022-09-20T11:07:15.577Z,15.83
2022-09-20T11:08:15.564Z,15.74
2022-09-20T11:09:15.555Z,15.83
2022-09-20T11:10:15.555Z,15.94
2022-09-20T11:11:15.532Z,15.97
2022-09-20T11:12:15.518Z,16.08
2022-09-20T11:13:15.504Z,16.08
2022-09-20T11:14:15.495Z,15.94
2022-09-20T11:15:15.493Z,16.00
2022-09-20T11:16:15.528Z,16.09
2022-09-20T11:17:15.470Z,16.30
2022-09-20T11:18:15.833Z,16.31
2022-09-20T11:19:15.455Z,16.05
2022-09-20T11:20:15.437Z,15.97
2022-09-20T11:21:15.437Z,15.97
2022-09-20T11:22:15.424Z,16.04
2022-09-20T11:23:15.401Z,15.90
2022-09-20T11:24:15.396Z,15.86
2022-09-20T11:25:19.989Z,15.94
2022-09-20T11:26:16.365Z,16.12
2022-09-20T11:27:15.360Z,16.23
2022-09-20T11:28:15.345Z,16.39
2022-09-20T11:29:15.358Z,16.46
2022-09-20T11:30:15.343Z,16.35
2022-09-20T11:31:15.399Z,16.28
2022-09-20T11:32:15.380Z,16.28
2022-09-20T11:33:15.286Z,16.42
2022-09-20T11:34:15.278Z,16.46
2022-09-20T11:35:15.288Z,16.71
2022-09-20T11:36:15.269Z,16.60
2022-09-20T11:37:15.250Z,16.41
2022-09-20T11:38:15.252Z,16.33
2022-09-20T11:39:15.263Z,16.46
2022-09-20T11:40:15.250Z,16.45
2022-09-20T11:41:15.225Z,16.68
2022-09-20T11:42:15.201Z,16.76
2022-09-20T11:43:15.212Z,16.58
2022-09-20T11:44:15.187Z,16.71
2022-09-20T11:45:15.184Z,16.98
2022-09-20T11:46:15.185Z,17.14
2022-09-20T11:47:26.651Z,17.46
2022-09-20T11:48:16.151Z,17.68
2022-09-20T11:49:15.149Z,17.79
2022-09-20T11:50:15.115Z,17.72
2022-09-20T11:51:15.106Z,17.48
2022-09-20T11:52:15.095Z,17.77
2022-09-20T11:53:15.094Z,17.74
2022-09-20T11:54:15.096Z,17.62
2022-09-20T11:55:15.111Z,17.40
2022-09-20T11:56:15.051Z,17.00
2022-09-20T11:57:15.053Z,16.83
2022-09-20T11:58:15.029Z,16.93
2022-09-20T11:59:15.047Z,16.82
2022-09-20T12:00:14.996Z,16.66
2022-09-20T12:01:14.993Z,16.91
2022-09-20T12:02:15.064Z,17.15
2022-09-20T12:03:15.020Z,17.40
2022-09-20T12:04:31.673Z,17.40
2022-09-20T12:05:15.960Z,17.43
2022-09-20T12:06:14.973Z,17.51
2022-09-20T12:07:17.838Z,17.41
2022-09-20T12:08:14.935Z,17.38
2022-09-20T12:09:14.927Z,17.36
2022-09-20T12:10:14.907Z,17.66
2022-09-20T12:11:14.914Z,17.84
2022-09-20T12:12:14.883Z,17.93
2022-09-20T12:13:14.902Z,18.05
2022-09-20T12:14:14.866Z,17.70
2022-09-20T12:15:14.878Z,17.44
2022-09-20T12:16:14.908Z,17.36
2022-09-20T12:17:14.845Z,17.37
2022-09-20T12:18:14.811Z,17.63
2022-09-20T12:19:15.099Z,18.12
2022-09-20T12:20:19.377Z,18.41
2022-09-20T12:21:16.050Z,17.96
2022-09-20T12:22:14.775Z,18.08
2022-09-20T12:23:14.773Z,18.10
2022-09-20T12:24:14.764Z,18.00
2022-09-20T12:25:14.746Z,17.96
2022-09-20T12:26:14.725Z,17.79
2022-09-20T12:27:14.746Z,17.59
2022-09-20T12:28:14.711Z,17.43
2022-09-20T12:29:14.703Z,17.84
2022-09-20T12:30:14.689Z,17.93
2022-09-20T12:31:14.724Z,18.15
2022-09-20T12:32:14.693Z,18.35
2022-09-20T12:33:14.658Z,18.37
2022-09-20T12:34:14.644Z,18.44
2022-09-20T12:35:14.651Z,18.60
2022-09-20T12:36:14.665Z,18.47
2022-09-20T12:37:14.622Z,18.36
2022-09-20T12:38:14.619Z,17.89
2022-09-20T12:39:19.211Z,17.26
2022-09-20T12:40:15.685Z,17.37
2022-09-20T12:41:14.578Z,17.56
2022-09-20T12:42:17.017Z,17.75
2022-09-20T12:43:14.565Z,18.02
2022-09-20T12:44:14.557Z,18.03
2022-09-20T12:45:14.561Z,18.12
2022-09-20T12:46:14.568Z,18.29
2022-09-20T12:47:14.518Z,18.15
2022-09-20T12:48:14.510Z,18.63
2022-09-20T12:49:14.501Z,18.65
2022-09-20T12:50:14.563Z,18.23
2022-09-20T12:51:14.467Z,18.02
2022-09-20T12:52:14.474Z,17.95
2022-09-20T12:53:14.455Z,17.63
2022-09-20T12:54:14.446Z,17.92
2022-09-20T12:55:14.441Z,18.26
2022-09-20T12:56:14.428Z,18.12
2022-09-20T12:57:14.424Z,17.66
2022-09-20T12:58:14.645Z,17.43
2022-09-20T12:59:14.397Z,17.90
2022-09-20T13:00:14.489Z,17.86
2022-09-20T13:01:15.000Z,17.99
2022-09-20T13:02:14.406Z,17.81
2022-09-20T13:03:14.361Z,17.58
2022-09-20T13:04:14.337Z,17.58
2022-09-20T13:05:14.338Z,17.68
2022-09-20T13:06:14.324Z,17.62
2022-09-20T13:07:14.296Z,17.62